Time;durP1;ratioP1;P1;durP2;ratioP2;P2;SDS_P1;SDS_P2;PMS_P1;PMS_P2;Temp;Humidity;BMP_temperature;BMP_pressure;BME280_temperature;BME280_humidity;BME280_pressure;Samples;Min_cycle;Max_cycle;Signal;HPM_P1;HPM_P2
2023/06/30 00:02:09;;;;;;;9.35;2.33;;;25.80;56.40;;;;;;10526078;28;20048;-36
2023/06/30 00:07:11;;;;;;;3.75;1.52;;;25.70;56.40;;;;;;10524067;28;20078;-31
2023/06/30 00:12:14;;;;;;;3.03;1.10;;;25.70;56.40;;;;;;10520355;28;20068;-31
2023/06/30 00:17:16;;;;;;;2.92;0.82;;;25.60;56.30;;;;;;10529509;28;20067;-38
2023/06/30 00:22:19;;;;;;;4.95;1.60;;;25.60;56.30;;;;;;10533470;28;20093;-30
2023/06/30 00:27:23;;;;;;;3.33;1.42;;;25.60;56.30;;;;;;10528518;28;20079;-33
2023/06/30 00:32:27;;;;;;;3.65;1.20;;;25.50;56.30;;;;;;10524154;28;20503;-30
2023/06/30 00:37:29;;;;;;;3.35;1.58;;;25.50;56.40;;;;;;10525879;28;20048;-33
2023/06/30 00:42:32;;;;;;;2.28;1.17;;;25.50;56.40;;;;;;10530916;28;20129;-31
2023/06/30 00:47:34;;;;;;;2.13;1.05;;;25.40;56.40;;;;;;10522386;28;20127;-38
2023/06/30 00:52:36;;;;;;;3.45;1.25;;;25.40;56.40;;;;;;10532248;28;20174;-35
2023/06/30 00:57:40;;;;;;;4.90;1.30;;;25.40;56.40;;;;;;10516440;28;20055;-31
2023/06/30 01:02:50;;;;;;;3.55;1.05;;;25.40;56.40;;;;;;10521216;28;20079;-31
2023/06/30 01:07:59;;;;;;;1.13;0.70;;;25.40;56.40;;;;;;10519533;28;20489;-33
2023/06/30 01:13:03;;;;;;;2.78;1.50;;;25.30;56.40;;;;;;10507769;28;20203;-33
2023/06/30 01:18:05;;;;;;;3.15;1.10;;;25.30;56.50;;;;;;10520184;28;20052;-33
2023/06/30 01:23:13;;;;;;;2.67;1.40;;;25.20;56.40;;;;;;10521250;28;20446;-31
2023/06/30 01:28:17;;;;;;;2.83;1.10;;;25.30;56.50;;;;;;10525105;28;20048;-32
2023/06/30 01:33:19;;;;;;;4.15;1.13;;;25.20;56.40;;;;;;10519674;28;20055;-31
2023/06/30 01:38:21;;;;;;;2.78;1.00;;;25.20;56.50;;;;;;10513492;28;20048;-32
2023/06/30 01:43:24;;;;;;;1.10;0.73;;;25.20;56.50;;;;;;10519933;28;20095;-32
2023/06/30 01:48:27;;;;;;;2.03;0.98;;;25.20;56.50;;;;;;10519467;28;20044;-31
2023/06/30 01:53:29;;;;;;;2.75;1.08;;;25.10;56.40;;;;;;10511258;28;20080;-31
2023/06/30 01:58:32;;;;;;;4.35;0.90;;;25.10;56.40;;;;;;10509146;28;20542;-30
2023/06/30 02:03:34;;;;;;;2.00;0.95;;;25.10;56.40;;;;;;10499105;28;20040;-32
2023/06/30 02:08:36;;;;;;;2.83;0.88;;;25.10;56.50;;;;;;10517668;28;20597;-34
2023/06/30 02:13:39;;;;;;;2.92;0.98;;;25.10;56.40;;;;;;10505704;28;20053;-32
2023/06/30 02:18:41;;;;;;;2.33;0.80;;;25.00;56.50;;;;;;10514312;28;20416;-32
2023/06/30 02:23:43;;;;;;;3.28;0.90;;;25.00;56.60;;;;;;10507009;28;20111;-38
2023/06/30 02:28:46;;;;;;;4.75;0.88;;;25.00;56.50;;;;;;10518703;28;20392;-34
2023/06/30 02:33:48;;;;;;;2.05;0.80;;;24.80;56.70;;;;;;10514669;28;20538;-33
2023/06/30 02:38:50;;;;;;;2.08;0.73;;;24.70;57.00;;;;;;10519793;28;20129;-33
2023/06/30 02:43:53;;;;;;;1.98;0.47;;;24.80;56.80;;;;;;10517009;28;20139;-32
2023/06/30 02:48:55;;;;;;;2.50;0.60;;;24.80;56.80;;;;;;10514145;28;20098;-32
2023/06/30 02:53:56;;;;;;;3.15;0.60;;;24.70;56.80;;;;;;10524291;28;20098;-31
2023/06/30 03:15:28;;;;;;;1.42;0.75;;;24.90;56.10;;;;;;10441097;27;2023917;-33
2023/06/30 03:20:30;;;;;;;3.47;0.80;;;24.70;56.70;;;;;;10482959;28;20044;-36
2023/06/30 03:25:32;;;;;;;1.67;0.50;;;24.70;56.80;;;;;;10486183;28;20075;-37
2023/06/30 03:30:35;;;;;;;1.42;0.60;;;24.70;56.80;;;;;;10485918;28;20087;-33
2023/06/30 03:35:37;;;;;;;1.02;0.50;;;24.70;57.50;;;;;;10480517;28;20076;-31
2023/06/30 03:40:38;;;;;;;1.75;0.63;;;24.70;56.90;;;;;;10482247;28;20539;-33
2023/06/30 03:45:42;;;;;;;2.67;0.63;;;24.60;56.90;;;;;;10480610;28;20068;-32
2023/06/30 03:50:44;;;;;;;1.00;0.70;;;24.70;57.00;;;;;;10474341;28;20463;-31
2023/06/30 03:55:45;;;;;;;1.85;0.60;;;24.60;56.90;;;;;;10479928;28;20060;-33
2023/06/30 04:00:49;;;;;;;2.00;0.70;;;24.60;57.00;;;;;;10477992;28;20069;-33
2023/06/30 04:05:51;;;;;;;1.10;0.70;;;24.60;56.90;;;;;;10470267;28;20507;-32
2023/06/30 04:10:53;;;;;;;2.80;0.77;;;24.60;57.00;;;;;;10477636;28;20128;-33
2023/06/30 04:15:56;;;;;;;1.65;0.70;;;24.60;56.90;;;;;;10484189;28;20508;-32
2023/06/30 04:20:58;;;;;;;1.55;0.80;;;24.60;57.00;;;;;;10471239;28;20122;-32
2023/06/30 04:26:00;;;;;;;3.10;0.90;;;24.60;57.00;;;;;;10453963;28;20049;-32
2023/06/30 04:31:04;;;;;;;2.80;0.80;;;24.60;57.00;;;;;;10444943;28;20049;-33
2023/06/30 04:36:07;;;;;;;2.35;1.00;;;24.60;57.00;;;;;;10445545;28;20049;-33
2023/06/30 04:41:08;;;;;;;2.92;0.98;;;24.60;57.10;;;;;;10449651;28;20063;-32
2023/06/30 04:46:12;;;;;;;3.88;1.10;;;24.60;56.90;;;;;;10449295;28;20456;-33
2023/06/30 04:51:15;;;;;;;3.00;1.27;;;24.60;56.90;;;;;;10446873;28;20075;-32
2023/06/30 04:56:16;;;;;;;2.20;1.10;;;24.70;56.90;;;;;;10448407;28;20138;-31
2023/06/30 05:01:19;;;;;;;;;;;24.70;56.90;;;;;;10449885;28;20528;-36
2023/06/30 05:06:21;;;;;;;3.13;1.25;;;24.70;56.90;;;;;;10442059;28;19928;-39
2023/06/30 05:11:24;;;;;;;2.38;1.40;;;24.70;56.90;;;;;;10444896;28;20065;-39
2023/06/30 05:16:28;;;;;;;1.92;1.05;;;24.70;56.80;;;;;;10447876;28;20415;-35
2023/06/30 05:21:29;;;;;;;2.70;0.70;;;24.70;56.80;;;;;;10448319;28;20044;-39
2023/06/30 05:26:31;;;;;;;;;;;24.80;57.40;;;;;;10448323;28;20068;-39
2023/06/30 05:31:35;;;;;;;4.80;0.80;;;24.80;57.80;;;;;;10445701;28;19939;-37
2023/06/30 05:36:36;;;;;;;3.85;0.80;;;24.90;57.80;;;;;;10444946;28;20076;-35
2023/06/30 05:41:38;;;;;;;;;;;24.90;57.90;;;;;;10441829;28;20091;-33
2023/06/30 05:46:41;;;;;;;6.20;1.00;;;24.90;58.50;;;;;;10442477;28;19929;-34
2023/06/30 05:51:43;;;;;;;3.10;1.15;;;24.90;57.70;;;;;;10443475;28;20072;-35
2023/06/30 05:56:45;;;;;;;6.70;1.00;;;24.90;57.80;;;;;;10433854;28;20111;-31
2023/06/30 06:01:48;;;;;;;4.85;1.15;;;24.90;57.60;;;;;;10438786;28;20049;-34
2023/06/30 06:06:50;;;;;;;5.40;1.25;;;24.90;57.50;;;;;;10438633;28;20059;-32
2023/06/30 06:11:51;;;;;;;3.50;1.05;;;24.20;58.00;;;;;;10436687;28;20148;-33
2023/06/30 06:16:54;;;;;;;;;;;24.50;58.60;;;;;;10432922;28;20147;-34
2023/06/30 06:21:56;;;;;;;6.07;2.03;;;24.80;57.80;;;;;;10434603;28;20460;-33
2023/06/30 06:26:58;;;;;;;3.17;1.00;;;24.70;57.80;;;;;;10441795;28;20049;-32
2023/06/30 06:32:01;;;;;;;4.85;1.17;;;24.90;57.30;;;;;;10443161;28;20049;-32
2023/06/30 06:37:03;;;;;;;9.98;1.10;;;24.90;57.10;;;;;;10431800;28;20480;-35
2023/06/30 06:42:05;;;;;;;5.30;1.20;;;25.00;57.50;;;;;;10439360;28;20141;-34
2023/06/30 06:47:44;;;;;;;4.28;0.93;;;25.00;57.50;;;;;;10439039;28;20085;-32
2023/06/30 06:52:49;;;;;;;3.65;1.00;;;25.10;57.40;;;;;;10444467;28;20114;-31
2023/06/30 06:57:51;;;;;;;5.35;1.17;;;24.80;57.80;;;;;;10444812;28;20118;-32
2023/06/30 07:02:53;;;;;;;4.72;0.90;;;24.00;59.40;;;;;;10445588;28;20049;-33
2023/06/30 07:07:56;;;;;;;5.53;1.08;;;24.70;57.70;;;;;;10446171;28;20052;-35
2023/06/30 07:12:58;;;;;;;5.80;1.52;;;24.00;58.60;;;;;;10448765;28;20056;-33
2023/06/30 07:18:01;;;;;;;6.80;1.10;;;24.60;57.40;;;;;;10444961;28;20057;-31
2023/06/30 07:23:04;;;;;;;5.72;1.00;;;24.40;57.40;;;;;;10444803;28;20136;-39
2023/06/30 07:28:06;;;;;;;5.00;1.65;;;24.70;56.60;;;;;;10444988;28;20478;-38
2023/06/30 07:33:08;;;;;;;2.50;0.90;;;24.80;55.60;;;;;;10447027;28;20052;-37
2023/06/30 07:38:11;;;;;;;1.50;0.90;;;24.40;58.10;;;;;;10445509;28;20107;-32
2023/06/30 07:43:13;;;;;;;3.20;0.85;;;25.10;56.40;;;;;;10444595;28;20094;-37
2023/06/30 07:48:15;;;;;;;2.17;0.77;;;24.80;56.00;;;;;;10442758;28;20500;-31
2023/06/30 07:53:20;;;;;;;2.35;0.85;;;24.70;56.80;;;;;;10450937;28;20053;-37
2023/06/30 07:58:22;;;;;;;1.77;0.80;;;24.80;56.40;;;;;;10445222;28;20052;-32
2023/06/30 08:03:24;;;;;;;4.55;1.15;;;23.70;60.50;;;;;;10451918;28;20497;-37
2023/06/30 08:08:28;;;;;;;;;;;24.20;58.40;;;;;;10454877;28;20084;-38
2023/06/30 08:13:29;;;;;;;2.53;0.98;;;23.50;59.00;;;;;;10451609;28;19929;-39
2023/06/30 08:18:31;;;;;;;3.05;0.85;;;24.50;57.70;;;;;;10449791;28;20482;-39
2023/06/30 08:23:35;;;;;;;1.80;1.05;;;24.00;58.50;;;;;;10448191;28;20155;-35
2023/06/30 08:28:36;;;;;;;1.92;0.95;;;24.10;57.40;;;;;;10448403;28;20041;-33
2023/06/30 08:33:38;;;;;;;;;;;24.90;56.20;;;;;;10446170;28;20131;-33
2023/06/30 08:38:41;;;;;;;7.78;0.80;;;25.20;55.70;;;;;;10446481;28;19959;-38
2023/06/30 08:43:45;;;;;;;5.00;1.20;;;25.30;55.10;;;;;;10452747;28;20049;-32
2023/06/30 08:48:47;;;;;;;4.65;1.65;;;24.10;57.60;;;;;;10451639;28;20073;-32
2023/06/30 08:53:52;;;;;;;3.63;1.00;;;24.90;56.30;;;;;;10440740;28;20464;-32
2023/06/30 08:58:54;;;;;;;5.60;0.98;;;24.70;56.10;;;;;;10447844;28;20652;-33
2023/06/30 09:03:57;;;;;;;4.05;1.00;;;24.50;56.20;;;;;;10447298;28;20115;-33
2023/06/30 09:09:03;;;;;;;4.70;1.63;;;23.90;58.80;;;;;;10448176;28;20564;-35
2023/06/30 09:14:07;;;;;;;3.85;1.08;;;23.90;57.00;;;;;;10453637;28;20052;-37
2023/06/30 09:19:09;;;;;;;1.98;1.10;;;24.10;57.50;;;;;;10449943;28;20123;-34
2023/06/30 09:24:13;;;;;;;1.52;0.95;;;24.10;57.10;;;;;;10448345;28;20229;-34
2023/06/30 09:29:15;;;;;;;5.07;0.70;;;23.50;58.30;;;;;;10449456;28;20455;-32
2023/06/30 09:34:19;;;;;;;3.20;1.20;;;24.50;57.30;;;;;;10450399;28;20053;-33
2023/06/30 09:39:23;;;;;;;4.53;1.30;;;23.80;56.90;;;;;;10446469;28;20473;-29
2023/06/30 09:44:25;;;;;;;1.23;0.70;;;23.70;57.70;;;;;;10440261;28;20489;-36
2023/06/30 09:49:28;;;;;;;;;;;23.60;59.60;;;;;;10447200;28;20041;-33
2023/06/30 09:54:33;;;;;;;4.50;0.70;;;24.80;55.90;;;;;;10445791;28;20015;-31
2023/06/30 09:59:35;;;;;;;8.05;1.85;;;24.70;55.40;;;;;;10453166;28;20082;-32
2023/06/30 10:04:36;;;;;;;3.25;1.40;;;25.10;54.20;;;;;;10449537;28;20131;-31
2023/06/30 10:09:43;;;;;;;2.00;1.10;;;24.60;53.50;;;;;;10457574;28;20045;-32
2023/06/30 10:14:48;;;;;;;1.52;0.82;;;24.20;56.60;;;;;;10450384;28;20152;-34
2023/06/30 10:19:51;;;;;;;2.60;1.17;;;24.30;56.00;;;;;;10445826;28;20132;-32
2023/06/30 10:24:56;;;;;;;9.82;1.60;;;23.70;53.60;;;;;;10444907;28;20045;-33
2023/06/30 10:29:58;;;;;;;10.13;1.80;;;23.90;54.50;;;;;;10451644;28;20147;-32
2023/06/30 10:35:00;;;;;;;1.92;0.90;;;23.40;53.20;;;;;;10447732;28;20131;-32
2023/06/30 10:40:07;;;;;;;3.63;1.00;;;24.00;55.50;;;;;;10440935;28;20045;-32
2023/06/30 10:45:09;;;;;;;3.38;1.20;;;23.40;58.90;;;;;;10449286;28;20545;-38
2023/06/30 10:50:15;;;;;;;3.60;1.08;;;23.80;55.20;;;;;;10444857;28;20566;-32
2023/06/30 10:55:21;;;;;;;2.67;1.30;;;23.80;54.90;;;;;;10445091;28;20140;-33
2023/06/30 11:00:29;;;;;;;2.75;1.23;;;24.50;55.70;;;;;;10443922;28;20068;-33
2023/06/30 11:05:32;;;;;;;3.38;1.00;;;24.10;56.70;;;;;;10443735;28;20049;-29
2023/06/30 11:10:37;;;;;;;3.20;1.30;;;25.70;53.90;;;;;;10445481;28;20060;-33
2023/06/30 11:15:45;;;;;;;2.83;0.98;;;24.00;52.00;;;;;;10435641;28;20092;-31
2023/06/30 11:21:05;;;;;;;4.45;1.05;;;24.40;54.20;;;;;;10441957;28;20136;-34
2023/06/30 11:26:16;;;;;;;2.55;1.00;;;24.50;53.40;;;;;;10445301;28;20129;-34
2023/06/30 11:31:18;;;;;;;5.53;1.02;;;24.90;54.40;;;;;;10450828;28;20068;-35
2023/06/30 11:36:20;;;;;;;1.60;0.80;;;25.10;52.90;;;;;;10449510;28;20057;-32
2023/06/30 11:41:24;;;;;;;4.85;1.42;;;25.30;53.30;;;;;;10457559;28;20037;-34
2023/06/30 11:46:27;;;;;;;5.28;1.67;;;25.00;53.50;;;;;;10453725;28;20382;-33
2023/06/30 11:51:30;;;;;;;5.50;2.17;;;24.90;54.10;;;;;;10451571;28;20048;-30
2023/06/30 11:56:34;;;;;;;6.45;1.48;;;24.00;55.90;;;;;;10447837;28;20481;-33
2023/06/30 12:01:36;;;;;;;6.70;2.10;;;24.70;55.00;;;;;;10448211;28;20127;-33
2023/06/30 12:06:37;;;;;;;4.97;2.55;;;24.10;55.60;;;;;;10447510;28;20049;-32
2023/06/30 12:11:43;;;;;;;6.10;1.70;;;24.00;56.50;;;;;;10449774;28;20135;-33
2023/06/30 12:16:48;;;;;;;6.95;3.03;;;24.50;56.30;;;;;;10448040;28;20115;-34
2023/06/30 12:21:54;;;;;;;4.60;1.40;;;24.10;57.60;;;;;;10450092;28;20048;-34
2023/06/30 12:26:57;;;;;;;2.22;1.30;;;25.20;54.50;;;;;;10451160;28;20073;-32
2023/06/30 12:31:59;;;;;;;4.72;1.15;;;24.70;55.60;;;;;;10455152;28;20145;-34
2023/06/30 12:37:01;;;;;;;4.15;1.00;;;25.00;54.70;;;;;;10449300;28;20424;-34
2023/06/30 12:42:05;;;;;;;6.22;1.48;;;24.90;52.40;;;;;;10452198;28;20125;-36
2023/06/30 12:47:07;;;;;;;6.90;1.33;;;24.70;54.00;;;;;;10449109;28;20090;-34
2023/06/30 12:52:09;;;;;;;5.13;1.00;;;24.70;51.10;;;;;;10447598;28;20079;-31
2023/06/30 12:57:12;;;;;;;3.00;0.90;;;25.60;53.00;;;;;;10449111;28;20052;-33
2023/06/30 13:02:14;;;;;;;4.90;1.17;;;25.50;50.20;;;;;;10448581;28;20060;-33
2023/06/30 13:07:16;;;;;;;3.67;1.38;;;25.60;51.10;;;;;;10451756;28;20398;-36
2023/06/30 13:12:24;;;;;;;2.22;1.05;;;25.60;50.10;;;;;;10457104;28;20484;-33
2023/06/30 13:17:26;;;;;;;1.08;0.63;;;25.70;52.30;;;;;;10450579;28;20045;-32
2023/06/30 13:22:28;;;;;;;5.57;1.15;;;25.60;52.50;;;;;;10447999;28;20095;-32
2023/06/30 13:27:32;;;;;;;3.63;1.08;;;25.80;51.20;;;;;;10445424;28;20131;-33
2023/06/30 13:32:33;;;;;;;3.40;1.05;;;26.10;51.50;;;;;;10453120;28;20053;-34
2023/06/30 13:37:35;;;;;;;6.75;1.25;;;25.70;51.30;;;;;;10447704;28;20079;-33
2023/06/30 13:42:38;;;;;;;5.07;1.25;;;25.70;49.40;;;;;;10447827;28;20135;-34
2023/06/30 13:47:40;;;;;;;6.47;1.20;;;26.10;51.70;;;;;;10443324;28;20057;-35
2023/06/30 13:52:42;;;;;;;4.03;1.10;;;25.50;50.90;;;;;;10445345;28;20490;-36
2023/06/30 13:57:45;;;;;;;3.70;0.93;;;25.30;50.00;;;;;;10454609;28;20545;-32
2023/06/30 14:02:47;;;;;;;1.30;0.75;;;26.20;49.50;;;;;;10451065;28;20083;-35
2023/06/30 14:07:49;;;;;;;2.58;1.15;;;26.40;48.50;;;;;;10444580;28;20454;-37
2023/06/30 14:12:52;;;;;;;4.07;1.15;;;26.10;48.30;;;;;;10444270;28;21023;-35
2023/06/30 14:17:54;;;;;;;5.80;0.80;;;26.70;49.30;;;;;;10439129;28;20649;-33
2023/06/30 14:22:56;;;;;;;4.55;1.05;;;26.20;51.10;;;;;;10444594;28;20537;-34
2023/06/30 14:27:59;;;;;;;4.55;1.10;;;26.70;49.80;;;;;;10436427;28;20076;-33
2023/06/30 14:33:01;;;;;;;6.85;1.00;;;26.30;46.90;;;;;;10443878;28;20053;-37
2023/06/30 14:38:03;;;;;;;3.75;0.80;;;26.00;48.00;;;;;;10439764;28;20126;-41
2023/06/30 14:43:06;;;;;;;3.28;0.88;;;26.70;47.40;;;;;;10443259;28;20144;-33
2023/06/30 14:48:09;;;;;;;5.47;0.70;;;26.70;48.80;;;;;;10456179;28;20044;-32
2023/06/30 14:53:12;;;;;;;3.97;0.73;;;27.00;49.00;;;;;;10441502;28;20674;-34
2023/06/30 14:58:15;;;;;;;2.97;0.70;;;27.00;47.90;;;;;;10439424;28;20049;-36
2023/06/30 15:03:17;;;;;;;2.53;0.70;;;26.80;49.90;;;;;;10442492;28;20076;-33
2023/06/30 15:08:19;;;;;;;2.83;0.70;;;26.90;49.00;;;;;;10448969;28;20517;-32
2023/06/30 15:13:22;;;;;;;3.53;0.82;;;26.90;49.40;;;;;;10440918;28;20059;-34
2023/06/30 15:18:23;;;;;;;5.22;1.73;;;26.70;49.80;;;;;;10442745;28;20056;-33
2023/06/30 15:23:25;;;;;;;8.18;1.00;;;26.50;50.40;;;;;;10445623;28;20140;-37
2023/06/30 15:28:31;;;;;;;3.83;1.13;;;26.80;50.10;;;;;;10435069;28;20040;-35
2023/06/30 15:33:33;;;;;;;5.05;1.00;;;25.80;51.10;;;;;;10443901;28;20453;-33
2023/06/30 15:38:34;;;;;;;8.63;1.10;;;25.30;51.80;;;;;;10440730;28;20040;-33
2023/06/30 15:43:38;;;;;;;10.65;1.40;;;25.20;52.60;;;;;;10434311;28;20044;-35
2023/06/30 15:48:39;;;;;;;13.35;1.27;;;25.20;52.40;;;;;;10438859;28;20126;-33
2023/06/30 15:53:42;;;;;;;7.28;1.30;;;25.50;51.00;;;;;;10438583;28;20076;-36
2023/06/30 15:58:45;;;;;;;3.85;1.27;;;25.20;51.80;;;;;;10444274;28;20398;-34
2023/06/30 16:03:47;;;;;;;3.83;1.15;;;24.80;53.40;;;;;;10438839;28;20080;-33
2023/06/30 16:08:49;;;;;;;3.67;0.80;;;24.80;51.40;;;;;;10438861;28;20851;-29
2023/06/30 16:13:52;;;;;;;8.80;1.60;;;25.80;48.70;;;;;;10444632;28;20114;-31
2023/06/30 16:18:54;;;;;;;8.57;1.42;;;25.30;50.30;;;;;;10440913;28;20055;-35
2023/06/30 16:23:56;;;;;;;14.23;1.58;;;25.30;48.70;;;;;;10434488;28;20154;-32
2023/06/30 16:28:59;;;;;;;4.75;1.10;;;24.60;50.20;;;;;;10436963;28;20049;-33
2023/06/30 16:34:03;;;;;;;8.40;1.60;;;24.20;51.20;;;;;;10452704;28;20049;-34
2023/06/30 16:39:05;;;;;;;7.57;1.77;;;24.50;52.40;;;;;;10446065;28;20515;-36
2023/06/30 16:44:08;;;;;;;;;;;23.40;50.60;;;;;;10449989;28;20041;-33
2023/06/30 16:49:10;;;;;;;8.00;1.67;;;23.80;54.30;;;;;;10445325;28;20147;-33
2023/06/30 16:54:12;;;;;;;5.68;1.20;;;23.60;51.60;;;;;;10447840;28;20136;-33
2023/06/30 16:59:15;;;;;;;;;;;23.60;54.80;;;;;;10449234;28;20047;-38
2023/06/30 17:04:17;;;;;;;10.85;2.03;;;23.40;53.90;;;;;;10451115;28;20019;-33
2023/06/30 17:09:19;;;;;;;7.82;1.70;;;24.30;53.60;;;;;;10441455;28;20068;-36
2023/06/30 17:14:22;;;;;;;;;;;24.40;54.00;;;;;;10446598;28;20195;-35
2023/06/30 17:19:27;;;;;;;44.47;3.40;;;22.40;57.70;;;;;;10446432;28;19921;-33
2023/06/30 17:24:29;;;;;;;13.60;2.13;;;21.20;62.20;;;;;;10448243;28;20045;-32
2023/06/30 17:29:32;;;;;;;7.35;1.90;;;21.00;66.10;;;;;;10439483;28;20512;-32
2023/06/30 17:34:34;;;;;;;10.93;2.08;;;22.20;63.10;;;;;;10441853;28;20521;-30
2023/06/30 17:39:36;;;;;;;;;;;21.70;64.40;;;;;;10432888;28;20037;-32
2023/06/30 17:44:41;;;;;;;4.53;1.60;;;21.60;67.00;;;;;;10443141;28;19967;-34
2023/06/30 17:49:43;;;;;;;9.02;2.00;;;21.10;66.00;;;;;;10441849;28;20491;-32
2023/06/30 17:54:46;;;;;;;6.90;1.50;;;20.80;67.80;;;;;;10440375;28;20119;-35
2023/06/30 17:59:49;;;;;;;9.95;2.08;;;21.40;68.80;;;;;;10449006;28;20056;-34
2023/06/30 18:04:51;;;;;;;9.52;1.70;;;20.00;72.10;;;;;;10442614;28;20570;-31
2023/06/30 18:09:53;;;;;;;6.75;1.52;;;20.80;69.70;;;;;;10443539;28;20076;-35
2023/06/30 18:14:56;;;;;;;10.15;2.05;;;20.90;71.50;;;;;;10439293;28;20449;-33
2023/06/30 18:19:58;;;;;;;20.10;2.17;;;20.60;72.80;;;;;;10444715;28;20053;-32
2023/06/30 18:25:00;;;;;;;5.72;1.30;;;20.50;73.30;;;;;;10442711;28;20123;-33
2023/06/30 18:30:04;;;;;;;5.35;1.70;;;21.10;70.80;;;;;;10438931;28;20079;-37
2023/06/30 18:35:07;;;;;;;7.45;1.70;;;21.60;66.30;;;;;;10447738;28;20045;-36
2023/06/30 18:40:10;;;;;;;13.38;2.20;;;20.70;73.40;;;;;;10444039;28;20045;-35
2023/06/30 18:45:14;;;;;;;7.30;1.75;;;19.90;79.20;;;;;;10440694;28;20053;-34
2023/06/30 18:50:15;;;;;;;10.60;2.08;;;21.60;70.50;;;;;;10442462;28;20055;-34
2023/06/30 18:55:17;;;;;;;9.55;2.08;;;21.50;70.80;;;;;;10443508;28;20420;-33
2023/06/30 19:00:21;;;;;;;10.63;1.95;;;20.70;75.10;;;;;;10443021;28;20356;-33
2023/06/30 19:05:24;;;;;;;10.38;2.45;;;21.00;73.50;;;;;;10442363;28;20114;-37
2023/06/30 19:10:27;;;;;;;4.57;1.38;;;20.80;74.60;;;;;;10439777;28;20059;-33
2023/06/30 19:15:30;;;;;;;5.43;1.38;;;23.40;62.60;;;;;;10444155;28;20059;-34
2023/06/30 19:20:32;;;;;;;9.63;2.10;;;23.30;62.10;;;;;;10441252;28;20556;-32
2023/06/30 19:25:33;;;;;;;;;;;23.60;61.10;;;;;;10440928;28;20193;-32
2023/06/30 19:30:37;;;;;;;6.07;1.75;;;24.00;59.30;;;;;;10440347;28;19952;-31
2023/06/30 19:35:39;;;;;;;5.18;1.77;;;23.60;60.40;;;;;;10441696;28;20073;-35
2023/06/30 19:40:41;;;;;;;;;;;23.70;59.70;;;;;;10442789;28;20127;-33
2023/06/30 19:45:44;;;;;;;7.05;1.20;;;24.40;58.40;;;;;;10442858;28;19928;-34
2023/06/30 19:50:46;;;;;;;11.20;1.48;;;24.40;58.10;;;;;;10442150;28;20068;-32
2023/06/30 19:55:48;;;;;;;3.38;1.50;;;23.70;59.80;;;;;;10441597;28;20057;-31
2023/06/30 20:00:53;;;;;;;7.30;1.85;;;24.20;59.00;;;;;;10445262;28;20126;-32
2023/06/30 20:05:55;;;;;;;3.58;1.15;;;23.80;60.50;;;;;;10448983;28;20512;-35
2023/06/30 20:10:58;;;;;;;6.80;1.75;;;24.50;58.50;;;;;;10454067;28;20640;-37
2023/06/30 20:16:02;;;;;;;7.20;2.22;;;24.10;59.40;;;;;;10446440;28;20089;-32
2023/06/30 20:21:04;;;;;;;5.75;1.63;;;24.70;57.80;;;;;;10445969;28;20045;-36
2023/06/30 20:26:05;;;;;;;4.65;1.52;;;23.60;61.00;;;;;;10450797;28;20099;-32
2023/06/30 20:31:09;;;;;;;3.80;1.20;;;24.20;58.70;;;;;;10453036;28;20076;-32
2023/06/30 20:36:11;;;;;;;3.33;1.60;;;24.30;58.60;;;;;;10450178;28;20497;-33
2023/06/30 20:41:13;;;;;;;5.68;1.42;;;24.20;59.30;;;;;;10453690;28;20052;-32
2023/06/30 20:46:16;;;;;;;5.00;1.60;;;24.30;58.70;;;;;;10450715;28;20048;-36
2023/06/30 20:51:18;;;;;;;3.22;1.20;;;23.80;60.10;;;;;;10450453;28;20041;-34
2023/06/30 20:56:20;;;;;;;;;;;24.70;58.00;;;;;;10451856;28;20152;-34
2023/06/30 21:01:24;;;;;;;5.45;1.63;;;24.50;58.50;;;;;;10449168;28;19925;-36
2023/06/30 21:06:27;;;;;;;4.97;1.50;;;24.30;57.80;;;;;;10451551;28;20079;-40
2023/06/30 21:11:29;;;;;;;8.05;1.50;;;24.20;58.30;;;;;;10453006;28;20756;-36
2023/06/30 21:16:42;;;;;;;;;;;23.80;58.90;;;;;;10451941;28;20041;-38
2023/06/30 21:21:52;;;;;;;3.92;0.98;;;24.00;59.00;;;;;;10449997;28;19924;-36
2023/06/30 21:26:54;;;;;;;3.35;1.30;;;24.10;58.60;;;;;;10446600;28;20052;-30
2023/06/30 21:31:57;;;;;;;;;;;24.00;58.80;;;;;;10446632;28;20052;-34
2023/06/30 21:36:59;;;;;;;3.78;1.25;;;23.80;59.20;;;;;;10449881;28;19921;-32
2023/06/30 21:42:01;;;;;;;;;;;23.90;59.10;;;;;;10450780;28;20041;-33
2023/06/30 21:47:05;;;;;;;2.75;1.15;;;24.10;58.60;;;;;;10424325;28;19935;-31
2023/06/30 21:52:07;;;;;;;5.32;1.42;;;24.00;59.10;;;;;;10451613;28;20133;-33
2023/06/30 21:57:09;;;;;;;3.15;1.33;;;23.60;60.40;;;;;;10444812;28;20052;-33
2023/06/30 22:02:12;;;;;;;2.67;1.10;;;23.90;59.80;;;;;;10447326;28;20151;-33
2023/06/30 22:07:14;;;;;;;1.73;0.88;;;23.70;60.00;;;;;;10446152;28;20147;-32
2023/06/30 22:12:16;;;;;;;5.15;1.20;;;23.80;60.80;;;;;;10438204;28;20084;-34
2023/06/30 22:17:19;;;;;;;3.45;1.30;;;23.00;64.10;;;;;;10442816;28;20052;-34
2023/06/30 22:22:21;;;;;;;2.92;1.17;;;23.00;65.40;;;;;;10441096;28;20560;-32
2023/06/30 22:27:23;;;;;;;7.93;1.45;;;23.40;63.00;;;;;;10439924;28;20584;-32
2023/06/30 22:32:26;;;;;;;;;;;22.20;73.60;;;;;;10443736;28;20565;-32
2023/06/30 22:37:30;;;;;;;3.55;1.10;;;23.30;66.20;;;;;;10442809;28;20301;-34
2023/06/30 22:42:31;;;;;;;2.05;1.30;;;22.10;76.40;;;;;;10447699;28;20127;-32
2023/06/30 22:47:35;;;;;;;;;;;22.40;70.00;;;;;;10438461;28;20532;-36
2023/06/30 22:52:39;;;;;;;3.17;0.90;;;23.30;68.40;;;;;;10439151;28;19924;-32
2023/06/30 22:57:41;;;;;;;4.03;1.20;;;23.20;67.80;;;;;;10440662;28;20059;-33
2023/06/30 23:02:45;;;;;;;3.85;1.13;;;23.60;64.30;;;;;;10443048;28;20049;-35
2023/06/30 23:07:47;;;;;;;1.33;0.80;;;24.10;62.40;;;;;;10445858;28;20056;-32
2023/06/30 23:12:49;;;;;;;2.35;0.85;;;23.40;66.30;;;;;;10445260;28;20509;-33
2023/06/30 23:17:52;;;;;;;2.25;0.73;;;24.30;61.80;;;;;;10443058;28;20059;-36
2023/06/30 23:22:54;;;;;;;2.17;1.02;;;24.90;59.00;;;;;;10441865;28;20053;-31
2023/06/30 23:27:56;;;;;;;5.05;1.25;;;24.70;60.60;;;;;;10447490;28;20141;-33
2023/06/30 23:33:03;;;;;;;4.15;1.35;;;23.80;62.90;;;;;;10461479;28;20045;-33
2023/06/30 23:38:05;;;;;;;3.33;1.00;;;23.90;65.70;;;;;;10454686;28;20049;-33
2023/06/30 23:43:06;;;;;;;;;;;23.80;63.60;;;;;;10450909;28;20494;-33
2023/06/30 23:48:10;;;;;;;4.28;1.08;;;23.70;67.60;;;;;;10462010;28;20022;-29
2023/06/30 23:53:12;;;;;;;4.65;0.70;;;23.70;66.00;;;;;;10453847;28;20498;-32
2023/06/30 23:58:14;;;;;;;3.05;0.90;;;24.40;61.20;;;;;;10454056;28;20146;-32
